Terminal Aerodrome Forecast
Issued by NWS

Home | Current Version | Previous Version | Text Only | Print | Product List | Glossary Off
Versions: 1 2 3 4 5 6 7 8 9 10 11 12 13 14 15 16 17 18 19

000
FTUS43 KOAX 191129
TAFCDR
TAF
KCDR 191129Z 1912/2012 20020G30KT P6SM OVC150
     FM192000 26028G38KT P6SM OVC100
     FM200200 24015G25KT P6SM SCT100=

USA.gov is the U.S. government's official web portal to all federal, state and local government web resources and services.